Terminal Aerodrome Forecast
Issued by NWS

Home | Current Version | Previous Version | Text Only | Print | Product List | Glossary On
Versions: 1 2 3 4 5 6 7 8 9 10 11 12 13 14 15 16 17 18
121
FTUS43 KABR 302325
TAFMBG
TAF
KMBG 302325Z 3100/3124 14013KT P6SM -SHRA VCTS BKN080CB BKN200
      TEMPO 3100/3101 VRB35G45KT 1SM +TSRAGS BKN040CB OVC080
     FM310100 13012KT P6SM FEW080 BKN200
     FM312000 16018G26KT P6SM FEW250=

USA.gov is the U.S. government's official web portal to all federal, state and local government web resources and services.